createdAt,value
2019-03-31T00:00:31.011Z,23.40
2019-03-31T00:03:00.678Z,21.83
2019-03-31T00:05:30.222Z,28.53
2019-03-31T00:07:59.686Z,23.93
2019-03-31T00:10:29.034Z,25.40
2019-03-31T00:12:58.908Z,25.02
2019-03-31T00:15:28.431Z,24.20
2019-03-31T00:17:57.984Z,20.60
2019-03-31T00:20:27.589Z,23.33
2019-03-31T00:22:57.174Z,25.33
2019-03-31T00:25:26.764Z,29.00
2019-03-31T00:27:56.493Z,22.33
2019-03-31T00:30:26.159Z,20.27
2019-03-31T00:32:55.686Z,26.85
2019-03-31T00:35:25.312Z,22.43
2019-03-31T00:37:54.869Z,25.43
2019-03-31T00:40:24.474Z,25.90
2019-03-31T00:42:53.942Z,27.13
2019-03-31T00:45:23.505Z,22.30
2019-03-31T00:47:53.074Z,23.15
2019-03-31T00:50:22.295Z,25.93
2019-03-31T00:52:51.778Z,22.73
2019-03-31T00:55:21.421Z,26.27
2019-03-31T00:57:50.886Z,25.30
2019-03-31T01:00:22.156Z,24.80
2019-03-31T01:02:52.293Z,25.67
2019-03-31T01:05:21.782Z,28.93
2019-03-31T01:07:51.948Z,24.07
2019-03-31T01:10:21.818Z,24.80
2019-03-31T01:12:51.319Z,23.12
2019-03-31T01:15:23.155Z,22.30
2019-03-31T01:17:53.448Z,21.10
2019-03-31T01:20:24.685Z,24.47
2019-03-31T01:22:54.253Z,26.57
2019-03-31T01:25:24.139Z,20.63
2019-03-31T01:27:53.831Z,21.70
2019-03-31T01:30:23.581Z,22.62
2019-03-31T01:32:54.112Z,22.63
2019-03-31T01:35:23.938Z,23.10
2019-03-31T01:37:53.182Z,22.55
2019-03-31T01:40:22.731Z,19.27
2019-03-31T01:42:52.201Z,20.53
2019-03-31T01:45:22.066Z,21.30
2019-03-31T01:47:51.360Z,17.80
2019-03-31T01:50:21.281Z,22.50
2019-03-31T01:52:50.904Z,19.45
2019-03-31T01:55:20.478Z,19.70
2019-03-31T01:57:49.942Z,22.93
2019-03-31T02:00:23.983Z,19.50
2019-03-31T02:02:53.571Z,19.57
2019-03-31T02:05:22.942Z,19.37
2019-03-31T02:07:52.198Z,18.07
2019-03-31T02:10:21.791Z,18.45
2019-03-31T02:12:51.231Z,18.73
2019-03-31T02:15:20.827Z,19.27
2019-03-31T02:17:50.363Z,22.17
2019-03-31T02:20:19.915Z,20.50
2019-03-31T02:22:49.414Z,20.80
2019-03-31T02:25:18.934Z,16.50
2019-03-31T02:27:48.413Z,18.53
2019-03-31T02:30:18.066Z,18.60
2019-03-31T02:32:47.520Z,19.82
2019-03-31T02:35:17.074Z,22.80
2019-03-31T02:37:46.641Z,19.93
2019-03-31T02:40:16.385Z,18.30
2019-03-31T02:42:46.021Z,19.43
2019-03-31T02:45:15.376Z,22.02
2019-03-31T02:47:44.853Z,23.00
2019-03-31T02:50:17.476Z,18.67
2019-03-31T02:52:47.064Z,17.80
2019-03-31T02:55:16.880Z,18.13
2019-03-31T02:57:46.551Z,19.13
2019-03-31T03:00:16.179Z,33.53
2019-03-31T03:02:45.866Z,17.70
2019-03-31T03:05:19.518Z,17.17
2019-03-31T03:07:48.220Z,18.90
2019-03-31T03:10:18.808Z,22.80
2019-03-31T03:12:50.004Z,21.50
2019-03-31T03:15:22.588Z,21.00
2019-03-31T03:17:52.072Z,26.30
2019-03-31T03:20:22.526Z,18.98
2019-03-31T03:22:52.011Z,23.80
2019-03-31T03:25:21.565Z,20.10
2019-03-31T03:27:51.141Z,20.77
2019-03-31T03:30:20.774Z,17.70
2019-03-31T03:33:13.692Z,18.62
2019-03-31T03:35:21.702Z,18.70
2019-03-31T03:37:51.263Z,16.67
2019-03-31T03:40:20.763Z,18.40
2019-03-31T03:42:50.008Z,17.83
2019-03-31T03:45:19.674Z,18.03
2019-03-31T03:47:49.193Z,18.80
2019-03-31T03:50:18.579Z,17.30
2019-03-31T03:52:48.025Z,25.33
2019-03-31T03:55:17.488Z,18.67
2019-03-31T03:57:47.240Z,18.90
2019-03-31T04:00:16.683Z,21.20
2019-03-31T04:02:46.360Z,22.40
2019-03-31T04:05:16.145Z,19.57
2019-03-31T04:07:45.777Z,21.83
2019-03-31T04:10:18.385Z,18.47
2019-03-31T04:12:48.030Z,16.47
2019-03-31T04:15:17.307Z,17.50
2019-03-31T04:17:46.801Z,20.45
2019-03-31T04:20:16.708Z,19.83
2019-03-31T04:22:46.372Z,18.10
2019-03-31T04:25:15.950Z,20.20
2019-03-31T04:27:45.336Z,22.33
2019-03-31T04:30:14.893Z,22.43
2019-03-31T04:32:44.577Z,19.20
2019-03-31T04:35:13.884Z,19.65
2019-03-31T04:37:43.375Z,18.70
2019-03-31T04:40:12.985Z,21.20
2019-03-31T04:42:42.459Z,16.90
2019-03-31T04:45:12.197Z,20.53
2019-03-31T04:47:41.925Z,18.10
2019-03-31T04:50:11.548Z,19.13
2019-03-31T04:52:41.102Z,17.40
2019-03-31T04:55:10.697Z,21.63
2019-03-31T04:57:40.205Z,19.90
2019-03-31T05:00:10.024Z,21.50
2019-03-31T05:02:39.597Z,16.83
2019-03-31T05:05:09.524Z,18.87
2019-03-31T05:07:39.007Z,18.10
2019-03-31T05:10:08.319Z,20.60
2019-03-31T05:12:37.598Z,21.57
2019-03-31T05:15:06.923Z,25.23
2019-03-31T05:17:36.503Z,21.10
2019-03-31T05:20:06.558Z,28.20
2019-03-31T05:22:36.163Z,21.50
2019-03-31T05:25:06.253Z,19.10
2019-03-31T05:27:35.831Z,22.03
2019-03-31T05:30:07.212Z,19.20
2019-03-31T05:32:36.831Z,18.60
2019-03-31T05:35:07.369Z,18.57
2019-03-31T05:37:49.897Z,16.60
2019-03-31T05:40:07.896Z,18.50
2019-03-31T05:42:37.631Z,18.83
2019-03-31T05:45:06.957Z,17.37
2019-03-31T05:47:36.581Z,22.37
2019-03-31T05:50:06.803Z,18.45
2019-03-31T05:52:36.408Z,15.87
2019-03-31T05:55:06.531Z,15.80
2019-03-31T05:57:35.921Z,16.07
2019-03-31T06:00:06.060Z,19.37
2019-03-31T06:02:36.025Z,16.37
2019-03-31T06:05:07.202Z,16.23
2019-03-31T06:07:36.707Z,18.60
2019-03-31T06:10:07.682Z,17.20
2019-03-31T06:12:37.318Z,17.93
2019-03-31T06:15:06.685Z,15.90
2019-03-31T06:17:36.307Z,18.33
2019-03-31T06:20:06.739Z,15.23
2019-03-31T06:22:36.092Z,16.40
2019-03-31T06:25:07.234Z,16.60
2019-03-31T06:27:38.718Z,12.53
2019-03-31T06:30:08.818Z,15.68
2019-03-31T06:32:38.393Z,16.93
2019-03-31T06:35:08.453Z,14.10
2019-03-31T06:37:37.954Z,15.67
2019-03-31T06:40:08.528Z,13.80
2019-03-31T06:42:38.525Z,16.35
2019-03-31T06:45:08.154Z,16.03
2019-03-31T06:47:37.469Z,12.57
2019-03-31T06:50:09.332Z,15.38
2019-03-31T06:52:38.943Z,18.37
2019-03-31T06:55:08.687Z,12.20
2019-03-31T06:57:38.262Z,12.50
2019-03-31T07:00:08.280Z,17.40
2019-03-31T07:02:37.815Z,14.15
2019-03-31T07:05:08.041Z,15.30
2019-03-31T07:07:37.658Z,18.83
2019-03-31T07:10:08.360Z,15.33
2019-03-31T07:12:37.579Z,17.17
2019-03-31T07:15:08.615Z,15.20
2019-03-31T07:17:38.205Z,16.53
2019-03-31T07:20:09.203Z,13.83
2019-03-31T07:22:38.803Z,15.78
2019-03-31T07:25:10.602Z,14.33
2019-03-31T07:27:40.496Z,18.17
2019-03-31T07:30:12.924Z,15.37
2019-03-31T07:32:42.833Z,13.03
2019-03-31T07:35:18.735Z,14.23
2019-03-31T07:37:47.427Z,14.23
2019-03-31T07:40:16.369Z,15.83
2019-03-31T07:42:45.709Z,16.27
2019-03-31T07:45:16.443Z,16.10
2019-03-31T07:47:46.148Z,16.30
2019-03-31T07:50:18.623Z,21.23
2019-03-31T07:52:48.046Z,18.83
2019-03-31T07:55:17.356Z,13.63
2019-03-31T07:57:46.935Z,14.98
2019-03-31T08:00:21.182Z,11.30
2019-03-31T08:02:50.729Z,12.30
2019-03-31T08:05:32.341Z,13.27
2019-03-31T08:07:51.575Z,11.38
2019-03-31T08:10:21.896Z,12.17
2019-03-31T08:12:51.369Z,11.57
2019-03-31T08:15:21.006Z,14.40
2019-03-31T08:17:50.573Z,13.47
2019-03-31T08:20:20.783Z,12.25
2019-03-31T08:22:50.319Z,15.70
2019-03-31T08:25:19.878Z,18.63
2019-03-31T08:27:49.340Z,14.50
2019-03-31T08:30:20.500Z,15.97
2019-03-31T08:32:49.990Z,12.67
2019-03-31T08:35:19.653Z,15.83
2019-03-31T08:37:48.906Z,15.40
2019-03-31T08:40:18.728Z,18.35
2019-03-31T08:42:48.194Z,16.80
2019-03-31T08:45:17.474Z,14.40
2019-03-31T08:47:47.078Z,20.43
2019-03-31T08:50:18.120Z,16.40
2019-03-31T08:52:47.709Z,21.07
2019-03-31T08:55:17.359Z,27.50
2019-03-31T08:57:47.033Z,16.90
2019-03-31T09:00:19.011Z,15.68
2019-03-31T09:02:48.562Z,19.40
2019-03-31T09:05:18.194Z,21.73
2019-03-31T09:07:47.530Z,18.80
2019-03-31T09:10:17.822Z,20.50
2019-03-31T09:12:48.646Z,17.77
2019-03-31T09:15:18.210Z,20.53
2019-03-31T09:17:47.802Z,19.07
2019-03-31T09:20:18.469Z,18.70
2019-03-31T09:22:47.642Z,21.60
2019-03-31T09:25:16.704Z,19.87
2019-03-31T09:27:46.063Z,25.43
2019-03-31T09:30:16.767Z,17.47
2019-03-31T09:32:46.120Z,20.20
2019-03-31T09:35:16.061Z,41.47
2019-03-31T09:37:45.750Z,22.37
2019-03-31T09:40:15.558Z,22.07
2019-03-31T09:42:45.145Z,23.22
2019-03-31T09:45:15.078Z,22.80
2019-03-31T09:47:44.649Z,24.10
2019-03-31T09:50:17.321Z,21.70
2019-03-31T09:52:46.203Z,22.20
2019-03-31T09:55:15.819Z,24.30
2019-03-31T09:57:45.415Z,24.90
2019-03-31T10:00:18.310Z,21.20
2019-03-31T10:02:47.948Z,26.47
2019-03-31T10:05:17.630Z,21.43
2019-03-31T10:07:47.263Z,25.40
2019-03-31T10:10:19.886Z,28.83
2019-03-31T10:12:49.271Z,31.02
2019-03-31T10:15:18.904Z,26.27
2019-03-31T10:17:48.487Z,29.80
2019-03-31T10:20:17.564Z,33.63
2019-03-31T10:22:47.263Z,31.90
2019-03-31T10:25:16.877Z,33.70
2019-03-31T10:27:46.422Z,29.40
2019-03-31T10:30:15.352Z,35.30
2019-03-31T10:32:44.906Z,32.63
2019-03-31T10:35:14.562Z,32.33
2019-03-31T10:37:44.993Z,29.33
2019-03-31T10:40:14.991Z,34.80
2019-03-31T10:42:44.530Z,36.77
2019-03-31T10:45:14.102Z,34.97
2019-03-31T10:47:43.641Z,32.63
2019-03-31T10:50:13.933Z,34.73
2019-03-31T10:52:43.305Z,36.68
2019-03-31T10:55:12.987Z,30.77
2019-03-31T10:57:42.582Z,38.07
2019-03-31T11:00:12.851Z,32.77
2019-03-31T11:02:42.273Z,37.70
2019-03-31T11:05:11.973Z,33.63
2019-03-31T11:07:41.951Z,37.40
2019-03-31T11:10:11.871Z,35.70
2019-03-31T11:12:41.100Z,35.48
2019-03-31T11:15:11.140Z,35.60
2019-03-31T11:17:40.681Z,34.50
2019-03-31T11:20:10.535Z,32.65
2019-03-31T11:22:41.703Z,30.80
2019-03-31T11:25:20.779Z,33.65
2019-03-31T11:27:43.978Z,31.40
2019-03-31T11:30:13.805Z,31.37
2019-03-31T11:32:43.744Z,34.63
2019-03-31T11:35:13.324Z,33.23
2019-03-31T11:37:42.804Z,25.40
2019-03-31T11:40:12.598Z,27.33
2019-03-31T11:42:44.274Z,29.47
2019-03-31T11:45:14.201Z,31.13
2019-03-31T11:47:43.708Z,35.53
2019-03-31T11:50:13.168Z,30.33
2019-03-31T11:52:42.645Z,29.30
2019-03-31T11:55:12.109Z,30.43
2019-03-31T11:57:41.616Z,29.90
2019-03-31T12:00:14.004Z,31.63
2019-03-31T12:02:43.588Z,28.73
2019-03-31T12:05:13.705Z,27.30
2019-03-31T12:07:47.057Z,30.00
2019-03-31T12:10:14.618Z,29.10
2019-03-31T12:12:44.211Z,27.60
2019-03-31T12:15:13.924Z,29.57
2019-03-31T12:17:43.498Z,27.48
2019-03-31T12:20:13.522Z,24.20
2019-03-31T12:22:43.117Z,28.53
2019-03-31T12:25:12.946Z,30.47
2019-03-31T12:27:42.473Z,36.13
2019-03-31T12:30:12.371Z,27.27
2019-03-31T12:32:41.868Z,27.37
2019-03-31T12:35:11.670Z,28.70
2019-03-31T12:37:43.430Z,31.87
2019-03-31T12:40:15.598Z,33.43
2019-03-31T12:42:45.188Z,32.17
2019-03-31T12:45:14.903Z,33.30
2019-03-31T12:47:44.468Z,29.07
2019-03-31T12:50:14.086Z,30.62
2019-03-31T12:52:47.436Z,26.90
2019-03-31T12:55:15.076Z,26.67
2019-03-31T12:57:44.647Z,27.93
2019-03-31T13:00:14.473Z,24.35
2019-03-31T13:02:43.946Z,22.80
2019-03-31T13:05:13.515Z,22.97
2019-03-31T13:07:55.760Z,26.87
2019-03-31T13:10:14.564Z,28.97
2019-03-31T13:12:44.086Z,30.67
2019-03-31T13:15:13.694Z,29.23
2019-03-31T13:17:43.186Z,26.03
2019-03-31T13:20:13.785Z,26.00
2019-03-31T13:22:45.835Z,21.60
2019-03-31T13:25:14.659Z,27.00
2019-03-31T13:27:44.227Z,26.40
2019-03-31T13:30:15.358Z,21.23
2019-03-31T13:32:44.947Z,22.80
2019-03-31T13:35:14.734Z,25.03
2019-03-31T13:37:44.133Z,24.47
2019-03-31T13:40:14.289Z,21.67
2019-03-31T13:42:43.484Z,17.55
2019-03-31T13:45:14.502Z,21.93
2019-03-31T13:47:44.033Z,23.10
2019-03-31T13:50:13.453Z,26.95
2019-03-31T13:52:42.342Z,27.63
2019-03-31T13:55:12.051Z,22.60
2019-03-31T13:57:42.376Z,26.10
2019-03-31T14:00:14.159Z,23.50
2019-03-31T14:02:43.668Z,19.12
2019-03-31T14:05:13.452Z,24.27
2019-03-31T14:07:42.699Z,22.67
2019-03-31T14:10:12.447Z,23.80
2019-03-31T14:12:41.887Z,23.75
2019-03-31T14:15:18.971Z,22.93
2019-03-31T14:17:42.941Z,18.23
2019-03-31T14:20:12.916Z,25.87
2019-03-31T14:22:42.402Z,21.85
2019-03-31T14:25:11.974Z,21.03
2019-03-31T14:27:41.577Z,25.63
2019-03-31T14:30:11.654Z,28.27
2019-03-31T14:32:41.161Z,34.87
2019-03-31T14:35:10.533Z,40.17
2019-03-31T14:37:39.897Z,43.03
2019-03-31T14:40:09.652Z,50.10
2019-03-31T14:42:40.221Z,49.95
2019-03-31T14:45:10.934Z,49.83
2019-03-31T14:47:41.448Z,48.03
2019-03-31T14:50:13.886Z,50.70
2019-03-31T14:52:43.442Z,46.30
2019-03-31T14:55:13.010Z,53.33
2019-03-31T14:57:42.500Z,50.43
2019-03-31T15:00:15.152Z,50.30
2019-03-31T15:02:43.478Z,55.17
2019-03-31T15:05:13.272Z,64.33
2019-03-31T15:07:43.138Z,61.02
2019-03-31T15:10:12.729Z,61.30
2019-03-31T15:12:42.636Z,68.53
2019-03-31T15:15:12.365Z,63.77
2019-03-31T15:17:42.186Z,63.40
2019-03-31T15:20:11.924Z,65.73
2019-03-31T15:22:41.470Z,63.13
2019-03-31T15:25:11.173Z,60.30
2019-03-31T15:27:41.006Z,65.15
2019-03-31T15:30:10.724Z,66.30
2019-03-31T15:32:40.409Z,60.83
2019-03-31T15:35:10.207Z,67.22
2019-03-31T15:37:39.749Z,67.60
2019-03-31T15:40:09.382Z,64.80
2019-03-31T15:42:38.971Z,63.02
2019-03-31T15:45:08.882Z,59.37
2019-03-31T15:47:38.351Z,62.83
2019-03-31T15:50:08.275Z,59.30
2019-03-31T15:52:37.920Z,62.53
2019-03-31T15:55:08.033Z,59.18
2019-03-31T15:57:37.583Z,55.43
2019-03-31T16:00:08.435Z,57.63
2019-03-31T16:02:38.077Z,58.40
2019-03-31T16:05:12.550Z,59.27
2019-03-31T16:07:40.314Z,54.95
2019-03-31T16:10:11.983Z,56.07
2019-03-31T16:12:41.368Z,58.10
2019-03-31T16:15:11.564Z,48.27
2019-03-31T16:17:41.175Z,46.80
2019-03-31T16:20:11.878Z,52.58
2019-03-31T16:22:41.459Z,48.00
2019-03-31T16:25:12.851Z,45.10
2019-03-31T16:27:42.435Z,42.13
2019-03-31T16:30:12.240Z,47.43
2019-03-31T16:32:42.593Z,51.80
2019-03-31T16:35:12.176Z,46.40
2019-03-31T16:37:41.501Z,41.10
2019-03-31T16:40:11.234Z,41.65
2019-03-31T16:42:40.713Z,40.80
2019-03-31T16:45:10.683Z,37.97
2019-03-31T16:47:40.320Z,47.83
2019-03-31T16:50:10.236Z,47.83
2019-03-31T16:52:39.717Z,33.23
2019-03-31T16:55:09.194Z,38.83
2019-03-31T16:57:38.406Z,37.20
2019-03-31T17:00:08.403Z,34.53
2019-03-31T17:02:41.724Z,31.70
2019-03-31T17:05:21.670Z,33.40
2019-03-31T17:07:42.524Z,31.77
2019-03-31T17:10:12.652Z,34.70
2019-03-31T17:12:42.177Z,29.10
2019-03-31T17:15:12.324Z,26.57
2019-03-31T17:17:41.945Z,30.63
2019-03-31T17:20:11.676Z,29.72
2019-03-31T17:22:41.217Z,34.27
2019-03-31T17:25:11.021Z,24.00
2019-03-31T17:27:40.481Z,29.23
2019-03-31T17:30:10.783Z,25.10
2019-03-31T17:32:40.305Z,28.02
2019-03-31T17:35:10.001Z,23.40
2019-03-31T17:37:39.651Z,25.33
2019-03-31T17:40:09.004Z,24.73
2019-03-31T17:42:38.266Z,27.53
2019-03-31T17:45:07.304Z,26.73
2019-03-31T17:47:36.989Z,23.13
2019-03-31T17:50:06.827Z,23.30
2019-03-31T17:52:36.392Z,29.67
2019-03-31T17:55:06.420Z,27.83
2019-03-31T17:57:35.901Z,27.10
2019-03-31T18:00:08.648Z,24.70
2019-03-31T18:02:38.241Z,26.03
2019-03-31T18:05:08.844Z,24.63
2019-03-31T18:07:38.410Z,25.95
2019-03-31T18:10:20.146Z,23.13
2019-03-31T18:12:40.454Z,23.62
2019-03-31T18:15:10.138Z,22.73
2019-03-31T18:17:39.586Z,25.80
2019-03-31T18:20:09.434Z,24.17
2019-03-31T18:22:38.903Z,24.30
2019-03-31T18:25:08.432Z,20.57
2019-03-31T18:27:38.195Z,25.53
2019-03-31T18:30:08.603Z,24.50
2019-03-31T18:32:38.090Z,25.95
2019-03-31T18:35:08.049Z,20.85
2019-03-31T18:37:37.648Z,20.47
2019-03-31T18:40:07.731Z,18.40
2019-03-31T18:42:36.938Z,21.43
2019-03-31T18:45:07.063Z,16.40
2019-03-31T18:47:36.605Z,19.33
2019-03-31T18:50:06.395Z,17.20
2019-03-31T18:52:35.823Z,16.67
2019-03-31T18:55:08.136Z,17.00
2019-03-31T18:57:39.777Z,15.63
2019-03-31T19:00:10.888Z,17.57
2019-03-31T19:02:42.049Z,18.50
2019-03-31T19:05:13.651Z,17.52
2019-03-31T19:07:44.830Z,18.33
2019-03-31T19:10:24.506Z,16.43
2019-03-31T19:12:49.277Z,16.87
2019-03-31T19:15:20.451Z,18.97
2019-03-31T19:17:51.628Z,16.30
2019-03-31T19:20:22.057Z,12.98
2019-03-31T19:22:53.200Z,15.93
2019-03-31T19:25:23.636Z,14.93
2019-03-31T19:27:54.563Z,15.25
2019-03-31T19:30:23.891Z,14.70
2019-03-31T19:32:57.991Z,13.60
2019-03-31T19:35:28.461Z,15.40
2019-03-31T19:38:02.425Z,12.50
2019-03-31T19:40:33.618Z,11.00
2019-03-31T19:43:04.754Z,11.88
2019-03-31T19:45:37.982Z,16.20
2019-03-31T19:48:08.882Z,14.98
2019-03-31T19:50:40.137Z,16.13
2019-03-31T19:53:11.333Z,14.27
2019-03-31T19:55:42.525Z,14.18
2019-03-31T19:58:12.988Z,11.63
2019-03-31T20:00:44.145Z,10.00
2019-03-31T20:03:15.303Z,16.53
2019-03-31T20:05:49.108Z,17.07
2019-03-31T20:08:20.346Z,12.90
2019-03-31T20:10:51.544Z,11.13
2019-03-31T20:13:23.293Z,16.93
2019-03-31T20:15:58.417Z,10.18
2019-03-31T20:18:32.183Z,15.35
2019-03-31T20:21:03.345Z,11.80
2019-03-31T20:23:34.481Z,11.67
2019-03-31T20:26:08.300Z,12.15
2019-03-31T20:28:39.500Z,9.83
2019-03-31T20:31:10.988Z,11.30
2019-03-31T20:33:42.176Z,11.87
2019-03-31T20:36:13.441Z,13.50
2019-03-31T20:38:44.612Z,12.50
2019-03-31T20:41:15.970Z,13.53
2019-03-31T20:43:47.206Z,13.00
2019-03-31T20:46:16.785Z,12.40
2019-03-31T20:48:46.418Z,17.67
2019-03-31T20:51:15.753Z,10.23
2019-03-31T20:53:45.164Z,12.40
2019-03-31T20:56:14.768Z,11.80
2019-03-31T20:58:44.140Z,11.43
2019-03-31T21:01:13.772Z,11.90
2019-03-31T21:03:43.208Z,9.18
2019-03-31T21:06:12.759Z,12.90
2019-03-31T21:08:42.289Z,11.00
2019-03-31T21:11:13.437Z,11.73
2019-03-31T21:13:42.910Z,13.53
2019-03-31T21:16:12.406Z,15.13
2019-03-31T21:18:41.885Z,13.13
2019-03-31T21:21:11.475Z,10.63
2019-03-31T21:23:40.926Z,11.48
2019-03-31T21:26:10.532Z,10.93
2019-03-31T21:28:39.528Z,14.30
2019-03-31T21:31:09.034Z,9.50
2019-03-31T21:33:38.584Z,10.30
2019-03-31T21:36:09.726Z,8.60
2019-03-31T21:38:46.019Z,9.80
2019-03-31T21:41:15.813Z,10.03
2019-03-31T21:43:45.291Z,10.78
2019-03-31T21:46:14.631Z,10.47
2019-03-31T21:48:43.863Z,12.90
2019-03-31T21:51:19.181Z,12.77
2019-03-31T21:53:48.907Z,10.87
2019-03-31T21:56:18.595Z,10.80
2019-03-31T21:58:48.929Z,14.20
2019-03-31T22:01:18.431Z,10.37
2019-03-31T22:03:47.907Z,13.57
2019-03-31T22:06:17.356Z,11.37
2019-03-31T22:08:46.936Z,10.83
2019-03-31T22:11:16.525Z,13.50
2019-03-31T22:13:45.880Z,10.97
2019-03-31T22:16:15.457Z,13.43
2019-03-31T22:18:46.007Z,11.85
2019-03-31T22:21:15.599Z,11.40
2019-03-31T22:23:57.307Z,13.22
2019-03-31T22:26:19.490Z,15.13
2019-03-31T22:28:47.869Z,10.90
2019-03-31T22:31:17.616Z,10.83
2019-03-31T22:33:47.191Z,14.27
2019-03-31T22:36:21.023Z,15.95
2019-03-31T22:38:52.199Z,13.70
2019-03-31T22:41:21.771Z,9.77
2019-03-31T22:43:51.324Z,10.70
2019-03-31T22:46:20.965Z,12.60
2019-03-31T22:48:50.449Z,15.00
2019-03-31T22:51:19.890Z,15.90
2019-03-31T22:53:49.364Z,11.57
2019-03-31T22:56:18.851Z,15.33
2019-03-31T22:58:48.320Z,12.30
2019-03-31T23:01:18.067Z,17.03
2019-03-31T23:03:47.591Z,13.40
2019-03-31T23:06:17.175Z,16.63
2019-03-31T23:08:46.393Z,12.88
2019-03-31T23:11:16.243Z,15.03
2019-03-31T23:13:45.482Z,15.67
2019-03-31T23:16:14.436Z,15.88
2019-03-31T23:18:44.025Z,13.37
2019-03-31T23:21:13.124Z,13.00
2019-03-31T23:23:42.592Z,12.13
2019-03-31T23:26:12.233Z,15.80
2019-03-31T23:28:43.393Z,17.90
2019-03-31T23:31:13.926Z,15.72
2019-03-31T23:33:43.500Z,12.60
2019-03-31T23:36:12.805Z,15.33
2019-03-31T23:38:42.412Z,14.77
2019-03-31T23:41:12.171Z,14.97
2019-03-31T23:43:41.647Z,11.65
2019-03-31T23:46:11.137Z,15.67
2019-03-31T23:48:40.627Z,17.37
2019-03-31T23:51:10.882Z,18.95
2019-03-31T23:53:40.410Z,16.83
2019-03-31T23:56:09.879Z,12.60
2019-03-31T23:58:39.333Z,12.57
